sensor_id;sensor_type;location;lat;lon;timestamp;temperature;humidity
69359;HTU21D;56520;49.066;8.660;2023-07-30T00:00:43;17.47;91.47
69359;HTU21D;56520;49.066;8.660;2023-07-30T00:03:09;17.39;91.72
69359;HTU21D;56520;49.066;8.660;2023-07-30T00:05:34;17.32;92.14
69359;HTU21D;56520;49.066;8.660;2023-07-30T00:07:59;17.32;92.63
69359;HTU21D;56520;49.066;8.660;2023-07-30T00:10:25;17.26;92.48
69359;HTU21D;56520;49.066;8.660;2023-07-30T00:12:50;17.25;92.64
69359;HTU21D;56520;49.066;8.660;2023-07-30T00:15:16;17.22;92.61
69359;HTU21D;56520;49.066;8.660;2023-07-30T00:17:41;17.19;92.72
69359;HTU21D;56520;49.066;8.660;2023-07-30T00:20:08;17.18;92.75
69359;HTU21D;56520;49.066;8.660;2023-07-30T00:22:34;17.17;92.72
69359;HTU21D;56520;49.066;8.660;2023-07-30T00:24:59;17.19;92.88
69359;HTU21D;56520;49.066;8.660;2023-07-30T00:27:25;17.20;92.98
69359;HTU21D;56520;49.066;8.660;2023-07-30T00:29:50;17.18;93.25
69359;HTU21D;56520;49.066;8.660;2023-07-30T00:32:16;17.19;93.21
69359;HTU21D;56520;49.066;8.660;2023-07-30T00:34:42;17.16;93.40
69359;HTU21D;56520;49.066;8.660;2023-07-30T00:37:07;17.17;93.40
69359;HTU21D;56520;49.066;8.660;2023-07-30T00:39:33;17.15;93.57
69359;HTU21D;56520;49.066;8.660;2023-07-30T00:41:58;17.13;93.73
69359;HTU21D;56520;49.066;8.660;2023-07-30T00:44:24;17.13;93.56
69359;HTU21D;56520;49.066;8.660;2023-07-30T00:46:49;17.10;93.53
69359;HTU21D;56520;49.066;8.660;2023-07-30T00:49:15;17.10;93.75
69359;HTU21D;56520;49.066;8.660;2023-07-30T00:51:41;17.10;93.73
69359;HTU21D;56520;49.066;8.660;2023-07-30T00:54:07;17.09;93.83
69359;HTU21D;56520;49.066;8.660;2023-07-30T00:56:33;17.10;93.78
69359;HTU21D;56520;49.066;8.660;2023-07-30T00:59:01;17.13;93.82
69359;HTU21D;56520;49.066;8.660;2023-07-30T01:01:26;17.14;93.82
69359;HTU21D;56520;49.066;8.660;2023-07-30T01:03:52;17.13;94.29
69359;HTU21D;56520;49.066;8.660;2023-07-30T01:06:18;17.14;94.30
69359;HTU21D;56520;49.066;8.660;2023-07-30T01:08:46;17.16;94.23
69359;HTU21D;56520;49.066;8.660;2023-07-30T01:11:11;17.16;94.59
69359;HTU21D;56520;49.066;8.660;2023-07-30T01:13:38;17.17;94.59
69359;HTU21D;56520;49.066;8.660;2023-07-30T01:16:04;17.18;94.72
69359;HTU21D;56520;49.066;8.660;2023-07-30T01:18:29;17.19;94.85
69359;HTU21D;56520;49.066;8.660;2023-07-30T01:21:18;17.21;95.36
69359;HTU21D;56520;49.066;8.660;2023-07-30T01:23:46;17.23;95.34
69359;HTU21D;56520;49.066;8.660;2023-07-30T01:26:16;17.28;95.57
69359;HTU21D;56520;49.066;8.660;2023-07-30T01:28:48;17.34;95.87
69359;HTU21D;56520;49.066;8.660;2023-07-30T01:31:16;17.40;96.00
69359;HTU21D;56520;49.066;8.660;2023-07-30T01:33:42;17.44;96.05
69359;HTU21D;56520;49.066;8.660;2023-07-30T01:36:09;17.49;96.22
69359;HTU21D;56520;49.066;8.660;2023-07-30T01:38:38;17.54;96.14
69359;HTU21D;56520;49.066;8.660;2023-07-30T01:41:04;17.58;96.02
69359;HTU21D;56520;49.066;8.660;2023-07-30T01:43:30;17.59;96.01
69359;HTU21D;56520;49.066;8.660;2023-07-30T01:45:55;17.62;96.01
69359;HTU21D;56520;49.066;8.660;2023-07-30T01:48:20;17.63;96.17
69359;HTU21D;56520;49.066;8.660;2023-07-30T01:50:46;17.66;96.27
69359;HTU21D;56520;49.066;8.660;2023-07-30T01:53:14;17.73;96.15
69359;HTU21D;56520;49.066;8.660;2023-07-30T01:55:39;17.74;96.17
69359;HTU21D;56520;49.066;8.660;2023-07-30T01:58:09;17.76;96.21
69359;HTU21D;56520;49.066;8.660;2023-07-30T02:00:34;17.81;96.25
69359;HTU21D;56520;49.066;8.660;2023-07-30T02:03:00;17.85;96.40
69359;HTU21D;56520;49.066;8.660;2023-07-30T02:05:25;17.85;96.32
69359;HTU21D;56520;49.066;8.660;2023-07-30T02:07:53;17.88;96.38
69359;HTU21D;56520;49.066;8.660;2023-07-30T02:10:19;17.88;96.33
69359;HTU21D;56520;49.066;8.660;2023-07-30T02:12:44;17.91;96.43
69359;HTU21D;56520;49.066;8.660;2023-07-30T02:15:09;17.95;96.54
69359;HTU21D;56520;49.066;8.660;2023-07-30T02:17:35;17.98;96.58
69359;HTU21D;56520;49.066;8.660;2023-07-30T02:20:00;18.07;96.75
69359;HTU21D;56520;49.066;8.660;2023-07-30T02:22:26;18.13;96.79
69359;HTU21D;56520;49.066;8.660;2023-07-30T02:24:51;18.15;96.80
69359;HTU21D;56520;49.066;8.660;2023-07-30T02:27:17;18.21;96.87
69359;HTU21D;56520;49.066;8.660;2023-07-30T02:29:42;18.25;96.82
69359;HTU21D;56520;49.066;8.660;2023-07-30T02:32:08;18.27;96.83
69359;HTU21D;56520;49.066;8.660;2023-07-30T02:34:33;18.32;96.77
69359;HTU21D;56520;49.066;8.660;2023-07-30T02:36:59;18.30;96.71
69359;HTU21D;56520;49.066;8.660;2023-07-30T02:39:24;18.29;96.65
69359;HTU21D;56520;49.066;8.660;2023-07-30T02:41:49;18.28;96.61
69359;HTU21D;56520;49.066;8.660;2023-07-30T02:44:15;18.26;96.57
69359;HTU21D;56520;49.066;8.660;2023-07-30T02:46:40;18.26;96.55
69359;HTU21D;56520;49.066;8.660;2023-07-30T02:49:05;18.25;96.51
69359;HTU21D;56520;49.066;8.660;2023-07-30T02:51:31;18.23;96.54
69359;HTU21D;56520;49.066;8.660;2023-07-30T02:54:04;18.25;96.49
69359;HTU21D;56520;49.066;8.660;2023-07-30T02:56:30;18.23;96.47
69359;HTU21D;56520;49.066;8.660;2023-07-30T02:58:56;18.23;96.44
69359;HTU21D;56520;49.066;8.660;2023-07-30T03:01:22;18.23;96.42
69359;HTU21D;56520;49.066;8.660;2023-07-30T03:03:47;18.24;96.39
69359;HTU21D;56520;49.066;8.660;2023-07-30T03:06:13;18.25;96.44
69359;HTU21D;56520;49.066;8.660;2023-07-30T03:08:39;18.26;96.44
69359;HTU21D;56520;49.066;8.660;2023-07-30T03:11:04;18.26;96.42
69359;HTU21D;56520;49.066;8.660;2023-07-30T03:13:30;18.28;96.40
69359;HTU21D;56520;49.066;8.660;2023-07-30T03:15:55;18.30;96.44
69359;HTU21D;56520;49.066;8.660;2023-07-30T03:18:20;18.32;96.37
69359;HTU21D;56520;49.066;8.660;2023-07-30T03:20:46;18.32;96.31
69359;HTU21D;56520;49.066;8.660;2023-07-30T03:23:11;18.33;96.29
69359;HTU21D;56520;49.066;8.660;2023-07-30T03:25:36;18.34;96.26
69359;HTU21D;56520;49.066;8.660;2023-07-30T03:28:02;18.35;96.23
69359;HTU21D;56520;49.066;8.660;2023-07-30T03:30:27;18.35;96.20
69359;HTU21D;56520;49.066;8.660;2023-07-30T03:32:53;18.36;96.20
69359;HTU21D;56520;49.066;8.660;2023-07-30T03:35:18;18.35;96.23
69359;HTU21D;56520;49.066;8.660;2023-07-30T03:37:43;18.37;96.31
69359;HTU21D;56520;49.066;8.660;2023-07-30T03:40:09;18.38;96.31
69359;HTU21D;56520;49.066;8.660;2023-07-30T03:42:34;18.38;96.39
69359;HTU21D;56520;49.066;8.660;2023-07-30T03:45:00;18.38;96.39
69359;HTU21D;56520;49.066;8.660;2023-07-30T03:47:25;18.40;96.53
69359;HTU21D;56520;49.066;8.660;2023-07-30T03:49:51;18.40;96.79
69359;HTU21D;56520;49.066;8.660;2023-07-30T03:52:16;18.43;96.79
69359;HTU21D;56520;49.066;8.660;2023-07-30T03:54:42;18.43;96.71
69359;HTU21D;56520;49.066;8.660;2023-07-30T03:57:08;18.47;96.77
69359;HTU21D;56520;49.066;8.660;2023-07-30T03:59:33;18.48;96.78
69359;HTU21D;56520;49.066;8.660;2023-07-30T04:01:58;18.48;96.80
69359;HTU21D;56520;49.066;8.660;2023-07-30T04:04:24;18.54;96.74
69359;HTU21D;56520;49.066;8.660;2023-07-30T04:06:49;18.55;96.60
69359;HTU21D;56520;49.066;8.660;2023-07-30T04:09:17;18.56;96.50
69359;HTU21D;56520;49.066;8.660;2023-07-30T04:11:43;18.56;96.26
69359;HTU21D;56520;49.066;8.660;2023-07-30T04:14:08;18.55;96.17
69359;HTU21D;56520;49.066;8.660;2023-07-30T04:16:34;18.53;96.11
69359;HTU21D;56520;49.066;8.660;2023-07-30T04:19:00;18.54;95.93
69359;HTU21D;56520;49.066;8.660;2023-07-30T04:21:25;18.55;95.72
69359;HTU21D;56520;49.066;8.660;2023-07-30T04:23:50;18.56;95.72
69359;HTU21D;56520;49.066;8.660;2023-07-30T04:26:16;18.56;95.84
69359;HTU21D;56520;49.066;8.660;2023-07-30T04:28:42;18.52;95.84
69359;HTU21D;56520;49.066;8.660;2023-07-30T04:31:07;18.47;96.07
69359;HTU21D;56520;49.066;8.660;2023-07-30T04:33:33;18.44;96.25
69359;HTU21D;56520;49.066;8.660;2023-07-30T04:35:58;18.46;96.36
69359;HTU21D;56520;49.066;8.660;2023-07-30T04:38:23;18.44;96.46
69359;HTU21D;56520;49.066;8.660;2023-07-30T04:40:49;18.41;96.46
69359;HTU21D;56520;49.066;8.660;2023-07-30T04:43:15;18.41;96.51
69359;HTU21D;56520;49.066;8.660;2023-07-30T04:45:41;18.35;96.42
69359;HTU21D;56520;49.066;8.660;2023-07-30T04:48:07;18.29;96.15
69359;HTU21D;56520;49.066;8.660;2023-07-30T04:50:32;18.20;95.75
69359;HTU21D;56520;49.066;8.660;2023-07-30T04:52:57;18.10;95.86
69359;HTU21D;56520;49.066;8.660;2023-07-30T04:55:23;18.05;95.93
69359;HTU21D;56520;49.066;8.660;2023-07-30T04:57:49;17.98;95.93
69359;HTU21D;56520;49.066;8.660;2023-07-30T05:00:14;17.92;95.94
69359;HTU21D;56520;49.066;8.660;2023-07-30T05:02:40;17.87;95.80
69359;HTU21D;56520;49.066;8.660;2023-07-30T05:05:05;17.83;95.73
69359;HTU21D;56520;49.066;8.660;2023-07-30T05:07:31;17.80;95.62
69359;HTU21D;56520;49.066;8.660;2023-07-30T05:09:56;17.76;95.71
69359;HTU21D;56520;49.066;8.660;2023-07-30T05:12:21;17.74;95.87
69359;HTU21D;56520;49.066;8.660;2023-07-30T05:14:47;17.73;95.91
69359;HTU21D;56520;49.066;8.660;2023-07-30T05:17:12;17.72;95.98
69359;HTU21D;56520;49.066;8.660;2023-07-30T05:19:37;17.75;95.97
69359;HTU21D;56520;49.066;8.660;2023-07-30T05:22:03;17.74;95.98
69359;HTU21D;56520;49.066;8.660;2023-07-30T05:24:30;17.74;96.10
69359;HTU21D;56520;49.066;8.660;2023-07-30T05:26:55;17.75;96.13
69359;HTU21D;56520;49.066;8.660;2023-07-30T05:29:21;17.77;96.13
69359;HTU21D;56520;49.066;8.660;2023-07-30T05:31:46;17.78;96.20
69359;HTU21D;56520;49.066;8.660;2023-07-30T05:34:11;17.84;96.16
69359;HTU21D;56520;49.066;8.660;2023-07-30T05:36:37;17.83;96.18
69359;HTU21D;56520;49.066;8.660;2023-07-30T05:39:02;17.89;96.11
69359;HTU21D;56520;49.066;8.660;2023-07-30T05:41:28;17.90;96.14
69359;HTU21D;56520;49.066;8.660;2023-07-30T05:43:53;17.90;96.13
69359;HTU21D;56520;49.066;8.660;2023-07-30T05:46:18;17.89;96.14
69359;HTU21D;56520;49.066;8.660;2023-07-30T05:48:44;17.91;96.15
69359;HTU21D;56520;49.066;8.660;2023-07-30T05:51:09;17.94;96.17
69359;HTU21D;56520;49.066;8.660;2023-07-30T05:53:35;17.97;96.26
69359;HTU21D;56520;49.066;8.660;2023-07-30T05:56:00;18.04;96.32
69359;HTU21D;56520;49.066;8.660;2023-07-30T05:58:25;18.07;96.29
69359;HTU21D;56520;49.066;8.660;2023-07-30T06:00:51;18.13;96.33
69359;HTU21D;56520;49.066;8.660;2023-07-30T06:03:16;18.19;96.39
69359;HTU21D;56520;49.066;8.660;2023-07-30T06:05:42;18.29;96.55
69359;HTU21D;56520;49.066;8.660;2023-07-30T06:08:08;18.43;96.58
69359;HTU21D;56520;49.066;8.660;2023-07-30T06:10:37;18.52;96.55
69359;HTU21D;56520;49.066;8.660;2023-07-30T06:13:06;18.65;96.30
69359;HTU21D;56520;49.066;8.660;2023-07-30T06:15:32;18.70;96.16
69359;HTU21D;56520;49.066;8.660;2023-07-30T06:17:58;18.77;95.72
69359;HTU21D;56520;49.066;8.660;2023-07-30T06:20:23;18.85;95.51
69359;HTU21D;56520;49.066;8.660;2023-07-30T06:22:49;18.92;95.26
69359;HTU21D;56520;49.066;8.660;2023-07-30T06:25:14;18.99;95.14
69359;HTU21D;56520;49.066;8.660;2023-07-30T06:27:40;19.09;95.24
69359;HTU21D;56520;49.066;8.660;2023-07-30T06:30:05;19.17;95.12
69359;HTU21D;56520;49.066;8.660;2023-07-30T06:32:31;19.26;94.90
69359;HTU21D;56520;49.066;8.660;2023-07-30T06:34:56;19.32;94.46
69359;HTU21D;56520;49.066;8.660;2023-07-30T06:37:22;19.36;94.42
69359;HTU21D;56520;49.066;8.660;2023-07-30T06:39:47;19.40;94.17
69359;HTU21D;56520;49.066;8.660;2023-07-30T06:42:13;19.43;94.26
69359;HTU21D;56520;49.066;8.660;2023-07-30T06:44:38;19.47;94.17
69359;HTU21D;56520;49.066;8.660;2023-07-30T06:47:03;19.46;93.33
69359;HTU21D;56520;49.066;8.660;2023-07-30T06:49:29;19.50;92.39
69359;HTU21D;56520;49.066;8.660;2023-07-30T06:51:54;19.67;89.25
69359;HTU21D;56520;49.066;8.660;2023-07-30T06:54:20;19.57;90.25
69359;HTU21D;56520;49.066;8.660;2023-07-30T06:56:45;19.27;91.77
69359;HTU21D;56520;49.066;8.660;2023-07-30T06:59:11;19.00;93.13
69359;HTU21D;56520;49.066;8.660;2023-07-30T07:01:39;18.82;93.35
69359;HTU21D;56520;49.066;8.660;2023-07-30T07:04:05;18.58;94.24
69359;HTU21D;56520;49.066;8.660;2023-07-30T07:06:30;18.42;94.87
69359;HTU21D;56520;49.066;8.660;2023-07-30T07:08:55;18.29;95.65
69359;HTU21D;56520;49.066;8.660;2023-07-30T07:11:21;18.21;95.72
69359;HTU21D;56520;49.066;8.660;2023-07-30T07:13:46;18.12;95.78
69359;HTU21D;56520;49.066;8.660;2023-07-30T07:16:12;18.05;96.10
69359;HTU21D;56520;49.066;8.660;2023-07-30T07:18:37;18.04;96.65
69359;HTU21D;56520;49.066;8.660;2023-07-30T07:21:02;18.05;96.92
69359;HTU21D;56520;49.066;8.660;2023-07-30T07:23:28;18.10;97.02
69359;HTU21D;56520;49.066;8.660;2023-07-30T07:25:53;18.12;97.19
69359;HTU21D;56520;49.066;8.660;2023-07-30T07:28:19;18.14;97.36
69359;HTU21D;56520;49.066;8.660;2023-07-30T07:30:44;18.23;97.65
69359;HTU21D;56520;49.066;8.660;2023-07-30T07:33:10;18.26;97.60
69359;HTU21D;56520;49.066;8.660;2023-07-30T07:35:38;18.30;97.61
69359;HTU21D;56520;49.066;8.660;2023-07-30T07:38:04;18.38;97.55
69359;HTU21D;56520;49.066;8.660;2023-07-30T07:40:29;18.46;96.95
69359;HTU21D;56520;49.066;8.660;2023-07-30T07:42:55;18.47;96.62
69359;HTU21D;56520;49.066;8.660;2023-07-30T07:45:20;18.52;96.39
69359;HTU21D;56520;49.066;8.660;2023-07-30T07:47:46;18.53;96.52
69359;HTU21D;56520;49.066;8.660;2023-07-30T07:50:13;18.63;96.36
69359;HTU21D;56520;49.066;8.660;2023-07-30T07:52:39;18.68;96.54
69359;HTU21D;56520;49.066;8.660;2023-07-30T07:55:06;18.78;96.55
69359;HTU21D;56520;49.066;8.660;2023-07-30T07:57:35;18.87;96.70
69359;HTU21D;56520;49.066;8.660;2023-07-30T08:00:00;19.02;96.76
69359;HTU21D;56520;49.066;8.660;2023-07-30T08:02:25;19.16;96.83
69359;HTU21D;56520;49.066;8.660;2023-07-30T08:04:51;19.27;95.93
69359;HTU21D;56520;49.066;8.660;2023-07-30T08:07:17;19.42;95.25
69359;HTU21D;56520;49.066;8.660;2023-07-30T08:09:42;19.55;95.07
69359;HTU21D;56520;49.066;8.660;2023-07-30T08:12:08;19.67;94.48
69359;HTU21D;56520;49.066;8.660;2023-07-30T08:14:33;19.77;93.18
69359;HTU21D;56520;49.066;8.660;2023-07-30T08:16:58;19.80;93.01
69359;HTU21D;56520;49.066;8.660;2023-07-30T08:19:24;20.03;90.06
69359;HTU21D;56520;49.066;8.660;2023-07-30T08:21:49;19.97;91.18
69359;HTU21D;56520;49.066;8.660;2023-07-30T08:24:15;20.00;91.22
69359;HTU21D;56520;49.066;8.660;2023-07-30T08:26:40;20.22;89.55
69359;HTU21D;56520;49.066;8.660;2023-07-30T08:29:06;20.25;88.87
69359;HTU21D;56520;49.066;8.660;2023-07-30T08:31:33;20.25;88.71
69359;HTU21D;56520;49.066;8.660;2023-07-30T08:33:58;20.32;89.48
69359;HTU21D;56520;49.066;8.660;2023-07-30T08:36:24;20.29;88.34
69359;HTU21D;56520;49.066;8.660;2023-07-30T08:38:49;20.31;88.41
69359;HTU21D;56520;49.066;8.660;2023-07-30T08:41:15;20.42;87.16
69359;HTU21D;56520;49.066;8.660;2023-07-30T08:43:40;20.39;85.93
69359;HTU21D;56520;49.066;8.660;2023-07-30T08:46:05;20.25;85.02
69359;HTU21D;56520;49.066;8.660;2023-07-30T08:48:31;20.10;85.79
69359;HTU21D;56520;49.066;8.660;2023-07-30T08:50:57;19.99;86.70
69359;HTU21D;56520;49.066;8.660;2023-07-30T08:53:26;19.91;85.48
69359;HTU21D;56520;49.066;8.660;2023-07-30T08:55:54;19.97;85.73
69359;HTU21D;56520;49.066;8.660;2023-07-30T08:58:21;20.07;84.96
69359;HTU21D;56520;49.066;8.660;2023-07-30T09:00:49;20.14;84.19
69359;HTU21D;56520;49.066;8.660;2023-07-30T09:03:16;20.18;85.26
69359;HTU21D;56520;49.066;8.660;2023-07-30T09:05:42;20.35;84.79
69359;HTU21D;56520;49.066;8.660;2023-07-30T09:08:08;20.46;84.64
69359;HTU21D;56520;49.066;8.660;2023-07-30T09:10:34;20.61;84.46
69359;HTU21D;56520;49.066;8.660;2023-07-30T09:13:01;20.80;82.04
69359;HTU21D;56520;49.066;8.660;2023-07-30T09:15:35;20.94;80.33
69359;HTU21D;56520;49.066;8.660;2023-07-30T09:18:03;21.08;79.62
69359;HTU21D;56520;49.066;8.660;2023-07-30T09:20:36;21.16;78.18
69359;HTU21D;56520;49.066;8.660;2023-07-30T09:23:02;21.30;76.17
69359;HTU21D;56520;49.066;8.660;2023-07-30T09:25:27;21.38;76.37
69359;HTU21D;56520;49.066;8.660;2023-07-30T09:27:53;21.31;77.79
69359;HTU21D;56520;49.066;8.660;2023-07-30T09:30:23;21.49;74.67
69359;HTU21D;56520;49.066;8.660;2023-07-30T09:32:53;21.46;74.56
69359;HTU21D;56520;49.066;8.660;2023-07-30T09:35:19;21.19;73.21
69359;HTU21D;56520;49.066;8.660;2023-07-30T09:37:45;21.02;74.57
69359;HTU21D;56520;49.066;8.660;2023-07-30T09:40:13;21.19;74.46
69359;HTU21D;56520;49.066;8.660;2023-07-30T09:42:44;21.33;75.32
69359;HTU21D;56520;49.066;8.660;2023-07-30T09:45:19;21.36;74.28
69359;HTU21D;56520;49.066;8.660;2023-07-30T09:47:54;21.42;74.89
69359;HTU21D;56520;49.066;8.660;2023-07-30T09:50:21;21.61;73.74
69359;HTU21D;56520;49.066;8.660;2023-07-30T09:52:48;21.72;73.13
69359;HTU21D;56520;49.066;8.660;2023-07-30T09:55:15;21.87;70.61
69359;HTU21D;56520;49.066;8.660;2023-07-30T09:57:40;21.88;70.51
69359;HTU21D;56520;49.066;8.660;2023-07-30T10:00:06;21.87;70.06
69359;HTU21D;56520;49.066;8.660;2023-07-30T10:02:46;21.93;69.52
69359;HTU21D;56520;49.066;8.660;2023-07-30T10:05:14;22.04;68.33
69359;HTU21D;56520;49.066;8.660;2023-07-30T10:08:01;21.93;70.14
69359;HTU21D;56520;49.066;8.660;2023-07-30T10:10:28;21.73;70.58
69359;HTU21D;56520;49.066;8.660;2023-07-30T10:12:59;21.61;69.98
69359;HTU21D;56520;49.066;8.660;2023-07-30T10:15:25;21.51;70.00
69359;HTU21D;56520;49.066;8.660;2023-07-30T10:17:51;21.40;70.55
69359;HTU21D;56520;49.066;8.660;2023-07-30T10:20:22;21.30;69.11
69359;HTU21D;56520;49.066;8.660;2023-07-30T10:22:54;21.42;66.17
69359;HTU21D;56520;49.066;8.660;2023-07-30T10:25:22;21.34;67.30
69359;HTU21D;56520;49.066;8.660;2023-07-30T10:27:50;21.27;66.92
69359;HTU21D;56520;49.066;8.660;2023-07-30T10:30:17;21.19;68.03
69359;HTU21D;56520;49.066;8.660;2023-07-30T10:35:43;21.14;66.44
69359;HTU21D;56520;49.066;8.660;2023-07-30T10:38:28;21.05;66.78
69359;HTU21D;56520;49.066;8.660;2023-07-30T10:41:10;21.40;66.56
69359;HTU21D;56520;49.066;8.660;2023-07-30T10:43:48;21.81;66.62
69359;HTU21D;56520;49.066;8.660;2023-07-30T10:46:15;22.35;62.94
69359;HTU21D;56520;49.066;8.660;2023-07-30T10:48:43;22.48;62.71
69359;HTU21D;56520;49.066;8.660;2023-07-30T10:51:10;22.41;63.79
69359;HTU21D;56520;49.066;8.660;2023-07-30T10:53:36;22.43;64.22
69359;HTU21D;56520;49.066;8.660;2023-07-30T10:56:06;22.58;63.92
69359;HTU21D;56520;49.066;8.660;2023-07-30T10:58:34;22.88;63.12
69359;HTU21D;56520;49.066;8.660;2023-07-30T11:01:05;23.31;60.57
69359;HTU21D;56520;49.066;8.660;2023-07-30T11:03:31;23.49;60.59
69359;HTU21D;56520;49.066;8.660;2023-07-30T11:06:00;23.75;59.38
69359;HTU21D;56520;49.066;8.660;2023-07-30T11:08:38;24.04;57.29
69359;HTU21D;56520;49.066;8.660;2023-07-30T11:11:05;24.23;56.08
69359;HTU21D;56520;49.066;8.660;2023-07-30T11:13:40;24.46;57.93
69359;HTU21D;56520;49.066;8.660;2023-07-30T11:16:07;24.55;57.00
69359;HTU21D;56520;49.066;8.660;2023-07-30T11:18:33;24.66;58.19
69359;HTU21D;56520;49.066;8.660;2023-07-30T11:21:06;24.87;57.67
69359;HTU21D;56520;49.066;8.660;2023-07-30T11:23:32;25.07;55.70
69359;HTU21D;56520;49.066;8.660;2023-07-30T11:26:00;25.21;53.57
69359;HTU21D;56520;49.066;8.660;2023-07-30T11:28:39;25.32;53.99
69359;HTU21D;56520;49.066;8.660;2023-07-30T11:33:38;25.39;50.42
69359;HTU21D;56520;49.066;8.660;2023-07-30T11:36:10;25.07;49.40
69359;HTU21D;56520;49.066;8.660;2023-07-30T11:38:37;24.61;52.56
69359;HTU21D;56520;49.066;8.660;2023-07-30T11:41:03;24.42;52.32
69359;HTU21D;56520;49.066;8.660;2023-07-30T11:43:30;24.30;53.07
69359;HTU21D;56520;49.066;8.660;2023-07-30T11:46:07;23.94;54.32
69359;HTU21D;56520;49.066;8.660;2023-07-30T11:48:33;23.70;55.13
69359;HTU21D;56520;49.066;8.660;2023-07-30T11:50:58;23.89;54.26
69359;HTU21D;56520;49.066;8.660;2023-07-30T11:53:43;24.06;54.12
69359;HTU21D;56520;49.066;8.660;2023-07-30T11:56:21;23.92;52.53
69359;HTU21D;56520;49.066;8.660;2023-07-30T11:58:47;23.87;53.81
69359;HTU21D;56520;49.066;8.660;2023-07-30T12:01:14;24.00;52.69
69359;HTU21D;56520;49.066;8.660;2023-07-30T12:03:40;24.19;53.19
69359;HTU21D;56520;49.066;8.660;2023-07-30T12:06:07;24.38;53.07
69359;HTU21D;56520;49.066;8.660;2023-07-30T12:08:34;24.26;52.30
69359;HTU21D;56520;49.066;8.660;2023-07-30T12:11:05;24.19;54.29
69359;HTU21D;56520;49.066;8.660;2023-07-30T12:13:31;24.40;53.98
69359;HTU21D;56520;49.066;8.660;2023-07-30T12:15:58;24.35;51.17
69359;HTU21D;56520;49.066;8.660;2023-07-30T12:18:25;24.01;52.72
69359;HTU21D;56520;49.066;8.660;2023-07-30T12:20:52;23.60;52.85
69359;HTU21D;56520;49.066;8.660;2023-07-30T12:23:18;23.25;54.27
69359;HTU21D;56520;49.066;8.660;2023-07-30T12:25:43;22.93;55.39
69359;HTU21D;56520;49.066;8.660;2023-07-30T12:28:09;22.94;55.53
69359;HTU21D;56520;49.066;8.660;2023-07-30T12:30:35;23.10;52.77
69359;HTU21D;56520;49.066;8.660;2023-07-30T12:33:02;22.97;53.75
69359;HTU21D;56520;49.066;8.660;2023-07-30T12:35:28;22.93;53.77
69359;HTU21D;56520;49.066;8.660;2023-07-30T12:37:53;22.90;53.14
69359;HTU21D;56520;49.066;8.660;2023-07-30T12:40:19;22.77;53.39
69359;HTU21D;56520;49.066;8.660;2023-07-30T12:42:44;22.58;54.07
69359;HTU21D;56520;49.066;8.660;2023-07-30T12:45:10;22.55;54.03
69359;HTU21D;56520;49.066;8.660;2023-07-30T12:47:35;22.50;54.20
69359;HTU21D;56520;49.066;8.660;2023-07-30T12:50:02;22.40;55.36
69359;HTU21D;56520;49.066;8.660;2023-07-30T12:52:28;22.36;55.98
69359;HTU21D;56520;49.066;8.660;2023-07-30T12:54:53;22.41;55.24
69359;HTU21D;56520;49.066;8.660;2023-07-30T12:57:18;22.36;55.84
69359;HTU21D;56520;49.066;8.660;2023-07-30T12:59:44;22.42;54.17
69359;HTU21D;56520;49.066;8.660;2023-07-30T13:02:09;22.42;55.23
69359;HTU21D;56520;49.066;8.660;2023-07-30T13:04:35;22.62;54.79
69359;HTU21D;56520;49.066;8.660;2023-07-30T13:07:00;22.68;53.75
69359;HTU21D;56520;49.066;8.660;2023-07-30T13:09:25;22.86;53.82
69359;HTU21D;56520;49.066;8.660;2023-07-30T13:11:51;23.02;54.64
69359;HTU21D;56520;49.066;8.660;2023-07-30T13:14:16;23.17;53.87
69359;HTU21D;56520;49.066;8.660;2023-07-30T13:16:42;23.45;53.17
69359;HTU21D;56520;49.066;8.660;2023-07-30T13:19:07;23.65;51.00
69359;HTU21D;56520;49.066;8.660;2023-07-30T13:21:32;23.53;50.69
69359;HTU21D;56520;49.066;8.660;2023-07-30T13:23:58;23.28;52.45
69359;HTU21D;56520;49.066;8.660;2023-07-30T13:26:23;23.01;53.01
69359;HTU21D;56520;49.066;8.660;2023-07-30T13:28:48;22.83;53.57
69359;HTU21D;56520;49.066;8.660;2023-07-30T13:31:14;22.88;53.10
69359;HTU21D;56520;49.066;8.660;2023-07-30T13:33:40;22.80;53.62
69359;HTU21D;56520;49.066;8.660;2023-07-30T13:36:05;22.65;53.60
69359;HTU21D;56520;49.066;8.660;2023-07-30T13:38:31;22.57;53.27
69359;HTU21D;56520;49.066;8.660;2023-07-30T13:40:56;22.47;53.19
69359;HTU21D;56520;49.066;8.660;2023-07-30T13:43:22;22.38;52.71
69359;HTU21D;56520;49.066;8.660;2023-07-30T13:45:47;22.33;53.50
69359;HTU21D;56520;49.066;8.660;2023-07-30T13:48:16;22.28;53.84
69359;HTU21D;56520;49.066;8.660;2023-07-30T13:50:41;22.24;53.51
69359;HTU21D;56520;49.066;8.660;2023-07-30T13:53:07;22.19;54.04
69359;HTU21D;56520;49.066;8.660;2023-07-30T13:55:32;22.14;54.41
69359;HTU21D;56520;49.066;8.660;2023-07-30T13:57:58;22.14;54.17
69359;HTU21D;56520;49.066;8.660;2023-07-30T14:00:23;22.14;53.23
69359;HTU21D;56520;49.066;8.660;2023-07-30T14:02:49;22.13;52.89
69359;HTU21D;56520;49.066;8.660;2023-07-30T14:05:16;22.17;52.62
69359;HTU21D;56520;49.066;8.660;2023-07-30T14:07:41;22.21;52.11
69359;HTU21D;56520;49.066;8.660;2023-07-30T14:10:08;22.21;52.47
69359;HTU21D;56520;49.066;8.660;2023-07-30T14:12:33;22.53;52.02
69359;HTU21D;56520;49.066;8.660;2023-07-30T14:14:58;22.87;50.00
69359;HTU21D;56520;49.066;8.660;2023-07-30T14:17:24;23.01;48.65
69359;HTU21D;56520;49.066;8.660;2023-07-30T14:19:49;22.96;50.05
69359;HTU21D;56520;49.066;8.660;2023-07-30T14:22:14;23.12;49.66
69359;HTU21D;56520;49.066;8.660;2023-07-30T14:24:40;23.24;48.27
69359;HTU21D;56520;49.066;8.660;2023-07-30T14:27:08;23.11;47.15
69359;HTU21D;56520;49.066;8.660;2023-07-30T14:29:34;22.93;47.91
69359;HTU21D;56520;49.066;8.660;2023-07-30T14:31:59;22.78;47.49
69359;HTU21D;56520;49.066;8.660;2023-07-30T14:34:25;22.69;46.69
69359;HTU21D;56520;49.066;8.660;2023-07-30T14:36:50;22.60;45.68
69359;HTU21D;56520;49.066;8.660;2023-07-30T14:39:16;22.46;46.23
69359;HTU21D;56520;49.066;8.660;2023-07-30T14:41:41;22.40;47.38
69359;HTU21D;56520;49.066;8.660;2023-07-30T14:44:06;22.44;46.40
69359;HTU21D;56520;49.066;8.660;2023-07-30T14:46:32;22.50;46.94
69359;HTU21D;56520;49.066;8.660;2023-07-30T14:48:57;22.48;47.97
69359;HTU21D;56520;49.066;8.660;2023-07-30T14:51:23;22.46;46.39
69359;HTU21D;56520;49.066;8.660;2023-07-30T14:53:48;22.47;46.35
69359;HTU21D;56520;49.066;8.660;2023-07-30T14:56:16;22.43;46.96
69359;HTU21D;56520;49.066;8.660;2023-07-30T14:58:42;22.67;45.66
69359;HTU21D;56520;49.066;8.660;2023-07-30T15:01:07;23.05;44.21
69359;HTU21D;56520;49.066;8.660;2023-07-30T15:03:33;23.20;44.74
69359;HTU21D;56520;49.066;8.660;2023-07-30T15:05:58;23.13;43.38
69359;HTU21D;56520;49.066;8.660;2023-07-30T15:08:23;22.97;44.74
69359;HTU21D;56520;49.066;8.660;2023-07-30T15:10:49;23.17;43.35
69359;HTU21D;56520;49.066;8.660;2023-07-30T15:13:14;23.31;44.57
69359;HTU21D;56520;49.066;8.660;2023-07-30T15:15:40;23.22;44.74